Latest Weather Observations for Roseworthy

IDS60901

Issued at 5:11 pm CST Friday 29 July 2016 (issued every 10 minutes, with the page automatically refreshed every 10 minutes)

About weather observations | Map of Adelaide area stations | Latest observations for Adelaide area | Other Formats
Station Details ID: 023122 Name: ROSEWORTHY AWS Lat: -34.51 Lon: 138.68 Height: 65.0 m
Data from the previous 72 hours. | See also: Recent months at Roseworthy
Date/Time
CST
Temp
°C
App
Temp
°C
Dew
Point
°C
Rel
Hum
%
Delta-T
°C
Wind Press
QNH
hPa
Press
MSL
hPa
Rain since
9am
mm
Dir  Spd
km/h
Gust
km/h
Spd
kts
Gust
kts
29/05:00pm 12.9 10.7 9.4 79 1.8 NNW 11 13 6 7 1021.9 - 0.0
29/04:30pm 14.6 12.1 9.8 73 2.5 NNW 13 17 7 9 1022.0 - 0.0
29/04:00pm 15.3 12.5 9.9 70 2.8 NNW 15 19 8 10 1022.1 - 0.0
29/03:30pm 15.0 12.5 9.6 70 2.8 NW 13 15 7 8 1022.4 - 0.0
29/03:00pm 15.4 13.0 10.0 70 2.8 NW 13 19 7 10 1022.6 1022.8 0.0
29/02:30pm 15.5 12.7 10.1 70 2.8 NW 15 19 8 10 1022.7 - 0.0
29/02:00pm 15.2 12.8 10.0 71 2.7 WNW 13 24 7 13 1023.1 - 0.0
29/01:30pm 14.7 11.6 8.9 68 3.0 WNW 15 20 8 11 1023.2 - 0.0
29/01:00pm 14.3 10.9 9.3 72 2.6 WNW 17 24 9 13 1023.7 - 0.0
29/12:30pm 13.2 9.4 8.9 75 2.2 WNW 19 24 10 13 1024.2 - 0.0
29/12:00pm 13.8 10.3 8.8 72 2.5 NW 17 20 9 11 1024.4 1024.5 0.0
29/11:30am 13.5 10.4 9.0 74 2.3 NW 15 22 8 12 1025.0 - 0.0
29/11:00am 13.0 9.6 9.1 77 2.0 NNW 17 20 9 11 1025.2 - 0.0
29/10:30am 12.0 9.2 8.5 79 1.7 NNW 13 17 7 9 1025.3 - 0.0
29/10:00am 11.0 8.5 8.0 82 1.5 NNW 11 17 6 9 1025.6 - 0.0
29/09:30am 9.9 8.0 7.5 85 1.1 NW 7 9 4 5 1025.7 - 0.0
29/09:00am 9.0 6.6 6.8 86 1.0 NNW 9 11 5 6 1025.6 1025.7 0.6
29/08:30am 8.9 7.4 6.9 87 0.9 NNW 4 7 2 4 1025.5 - 0.6
29/08:00am 6.6 3.0 5.2 91 0.6 NNE 13 19 7 10 1024.8 - 0.6
29/07:30am 6.3 3.8 4.6 89 0.7 NNE 7 9 4 5 1025.3 - 0.6
29/07:00am 7.0 3.5 5.3 89 0.8 N 13 15 7 8 1024.9 - 0.6
29/06:30am 6.9 3.0 5.4 90 0.7 N 15 17 8 9 1024.7 - 0.6
29/06:00am 6.7 2.8 5.5 92 0.5 N 15 17 8 9 1024.8 1024.9 0.6
29/05:30am 6.5 2.6 5.5 93 0.4 N 15 17 8 9 1024.9 - 0.6
29/05:00am 6.6 2.6 4.8 88 0.8 N 15 15 8 8 1024.8 - 0.6
29/04:30am 6.9 3.4 5.5 91 0.6 N 13 15 7 8 1025.0 - 0.6
29/04:00am 6.8 3.7 5.4 91 0.6 N 11 13 6 7 1025.0 - 0.6
29/03:30am 7.1 3.6 5.4 89 0.8 N 13 13 7 7 1025.1 - 0.6
29/03:00am 8.2 4.9 6.5 89 0.8 N 13 15 7 8 1024.9 1025.0 0.6
29/02:30am 8.3 5.0 6.6 89 0.8 N 13 17 7 9 1025.2 - 0.6
29/02:00am 8.7 5.6 7.2 90 0.7 N 13 15 7 8 1025.5 - 0.6
29/01:30am 8.9 6.6 7.4 90 0.7 N 9 13 5 7 1025.7 - 0.6
29/01:00am 8.4 6.5 6.9 90 0.7 NNW 6 9 3 5 1026.1 - 0.6
29/12:30am 8.9 5.8 7.4 90 0.7 WNW 13 19 7 10 1026.3 - 0.6
29/12:00am 8.9 6.7 7.7 92 0.6 NW 9 11 5 6 1026.6 1026.7 0.6
 
Date/Time
CST
Temp
°C
App
Temp
°C
Dew
Point
°C
Rel
Hum
%
Delta-T
°C
Wind Press
QNH
hPa
Press
MSL
hPa
Rain since
9am
mm
Dir  Spd
km/h
Gust
km/h
Spd
kts
Gust
kts
28/11:30pm 8.8 6.5 7.6 92 0.6 N 9 11 5 6 1026.3 - 0.6
28/11:00pm 8.5 5.8 7.4 93 0.5 NNW 11 13 6 7 1026.5 - 0.6
28/10:30pm 7.6 4.7 6.5 93 0.5 NNW 11 13 6 7 1026.6 - 0.6
28/10:00pm 8.2 5.0 7.0 92 0.6 NNW 13 15 7 8 1026.8 - 0.6
28/09:30pm 8.6 5.5 7.2 91 0.7 NNW 13 15 7 8 1026.8 - 0.6
28/09:00pm 9.6 6.7 8.2 91 0.7 NNW 13 15 7 8 1027.2 1027.4 0.6
28/08:30pm 9.5 6.6 8.1 91 0.7 NNW 13 17 7 9 1027.3 - 0.6
28/08:00pm 9.7 6.8 8.3 91 0.7 NW 13 19 7 10 1027.5 - 0.6
28/07:30pm 9.7 6.9 8.5 92 0.6 NW 13 17 7 9 1027.4 - 0.6
28/07:00pm 9.9 6.7 8.5 91 0.7 NW 15 19 8 10 1027.3 - 0.6
28/06:30pm 10.1 7.3 8.5 90 0.8 NW 13 17 7 9 1027.3 - 0.6
28/06:00pm 10.3 7.1 8.6 89 0.8 WNW 15 20 8 11 1027.2 1027.4 0.6
28/05:30pm 10.4 7.7 8.8 90 0.8 WNW 13 17 7 9 1027.2 - 0.6
28/05:00pm 10.4 7.6 8.7 89 0.8 WNW 13 17 7 9 1027.0 - 0.6
28/04:30pm 11.2 7.5 9.5 89 0.9 W 19 24 10 13 1027.0 - 0.6
28/04:00pm 11.5 8.3 9.8 89 0.9 W 17 24 9 13 1027.1 - 0.6
28/03:30pm 11.8 8.3 10.2 90 0.8 WSW 19 22 10 12 1027.1 - 0.6
28/03:00pm 11.8 8.1 10.0 89 0.9 W 20 28 11 15 1027.0 1027.2 0.4
28/02:30pm 12.1 8.5 9.7 85 1.2 W 19 24 10 13 1026.9 - 0.2
28/02:00pm 12.0 9.9 9.6 85 1.2 WSW 11 15 6 8 1027.1 - 0.2
28/01:30pm 11.7 8.8 9.6 87 1.1 WSW 15 20 8 11 1027.3 - 0.0
28/01:00pm 11.9 8.7 10.0 88 1.0 WSW 17 26 9 14 1027.7 - 0.0
28/12:30pm 12.3 8.6 9.3 82 1.5 W 19 20 10 11 1027.8 - 0.0
28/12:00pm 12.5 9.1 9.1 80 1.7 NW 17 22 9 12 1028.3 1028.5 0.0
28/11:30am 12.2 8.9 9.4 83 1.4 WNW 17 22 9 12 1028.9 - 0.0
28/11:00am 12.0 8.5 10.2 89 0.9 WNW 19 26 10 14 1029.2 - 0.0
28/10:30am 11.7 8.4 9.4 86 1.2 NW 17 22 9 12 1029.3 - 0.0
28/10:00am 11.6 7.5 8.8 83 1.4 NW 20 26 11 14 1029.4 - 0.0
28/09:30am 11.0 8.0 9.4 90 0.8 NW 15 19 8 10 1029.4 - 0.0
28/09:00am 10.1 6.6 8.7 91 0.7 NW 17 20 9 11 1029.3 1029.5 0.2
28/08:30am 9.7 6.1 8.3 91 0.7 NW 17 20 9 11 1029.2 - 0.0
28/08:00am 9.3 6.0 7.9 91 0.7 NW 15 20 8 11 1028.8 - 0.0
28/07:30am 9.2 6.6 7.8 91 0.7 NW 11 13 6 7 1028.4 - 0.0
28/07:00am 9.2 7.0 7.8 91 0.7 NW 9 13 5 7 1028.0 - 0.0
28/06:30am 9.2 6.6 7.8 91 0.7 WNW 11 13 6 7 1027.8 - 0.0
28/06:00am 9.5 6.5 7.9 90 0.8 W 13 17 7 9 1027.8 1028.0 0.0
28/05:30am 9.3 7.0 7.4 88 0.9 WNW 9 13 5 7 1027.5 - 0.0
28/05:00am 9.1 7.1 6.9 86 1.0 WNW 7 9 4 5 1027.4 - 0.0
28/04:30am 9.7 6.6 7.1 84 1.2 W 13 15 7 8 1027.4 - 0.0
28/04:00am 9.9 6.7 7.0 82 1.4 WNW 13 17 7 9 1027.4 - 0.0
28/03:30am 9.9 6.6 6.6 80 1.5 WNW 13 17 7 9 1027.3 - 0.0
28/03:00am 10.0 6.8 6.7 80 1.5 NW 13 17 7 9 1027.4 1027.6 0.0
28/02:30am 9.9 7.1 6.8 81 1.5 WNW 11 15 6 8 1027.5 - 0.0
28/02:00am 10.2 6.5 6.5 78 1.7 WNW 15 20 8 11 1027.5 - 0.0
28/01:30am 10.2 7.1 7.1 81 1.5 WNW 13 19 7 10 1027.5 - 0.0
28/01:00am 10.1 6.6 7.2 82 1.4 WNW 15 17 8 9 1027.4 - 0.0
28/12:30am 10.1 7.0 7.2 82 1.4 W 13 17 7 9 1027.1 - 0.0
28/12:00am 10.1 7.1 7.7 85 1.1 WNW 13 17 7 9 1026.9 1027.1 0.0
 
Date/Time
CST
Temp
°C
App
Temp
°C
Dew
Point
°C
Rel
Hum
%
Delta-T
°C
Wind Press
QNH
hPa
Press
MSL
hPa
Rain since
9am
mm
Dir  Spd
km/h
Gust
km/h
Spd
kts
Gust
kts
27/11:30pm 10.3 6.5 7.5 83 1.3 WNW 17 20 9 11 1027.2 - 0.0
27/11:00pm 9.9 6.9 7.7 86 1.1 NW 13 17 7 9 1027.4 - 0.0
27/10:30pm 10.0 7.0 7.6 85 1.2 WNW 13 15 7 8 1027.4 - 0.0
27/10:00pm 9.4 6.7 7.3 87 1.0 NW 11 13 6 7 1027.4 - 0.0
27/09:30pm 10.2 7.5 7.3 82 1.4 WSW 11 15 6 8 1027.4 - 0.0
27/09:00pm 9.7 6.6 7.1 84 1.2 W 13 15 7 8 1027.5 1027.7 0.0
27/08:30pm 9.9 6.5 7.5 85 1.1 WNW 15 15 8 8 1027.4 - 0.0
27/08:00pm 9.8 7.2 7.6 86 1.1 NW 11 13 6 7 1027.4 - 0.0
27/07:30pm 9.9 6.9 7.5 85 1.1 NW 13 15 7 8 1027.1 - 0.0
27/07:00pm 10.0 6.9 7.1 82 1.4 WNW 13 15 7 8 1026.9 - 0.0
27/06:30pm 10.5 7.1 7.6 82 1.4 WNW 15 20 8 11 1026.6 - 0.0
27/06:00pm 10.3 7.2 7.4 82 1.4 WNW 13 15 7 8 1026.3 1026.4 0.0
27/05:30pm 10.6 7.4 6.9 78 1.8 W 13 15 7 8 1026.0 - 0.0
27/05:00pm 11.3 8.5 7.0 75 2.1 W 11 15 6 8 1025.8 - 0.0
27/04:30pm 12.0 8.8 6.7 70 2.5 WSW 13 17 7 9 1025.6 - 0.0
27/04:00pm 12.1 8.4 6.4 68 2.7 WSW 15 20 8 11 1025.3 - 0.0
27/03:30pm 12.4 8.3 6.0 65 3.0 SW 17 22 9 12 1025.2 - 0.0
27/03:00pm 12.8 8.3 6.2 64 3.1 SW 19 28 10 15 1024.8 1024.9 0.0
27/02:30pm 12.2 6.8 4.7 60 3.4 SW 22 33 12 18 1024.7 - 0.0
27/02:00pm 12.6 7.5 6.0 64 3.1 SW 22 30 12 16 1024.3 - 0.0
27/01:30pm 12.1 7.4 5.9 66 2.9 SW 20 28 11 15 1024.2 - 0.0
27/01:00pm 12.3 7.6 6.1 66 2.9 WSW 20 30 11 16 1024.3 - 0.0
27/12:30pm 12.6 7.5 6.2 65 3.0 WSW 22 32 12 17 1024.2 - 0.0
27/12:00pm 12.2 7.4 5.6 64 3.1 WSW 20 28 11 15 1024.0 1024.1 0.0
27/11:30am 12.7 8.4 7.0 68 2.8 SW 19 26 10 14 1023.9 - 0.0
27/11:00am 11.8 7.2 6.5 70 2.5 SW 20 26 11 14 1024.1 - 0.0
27/10:30am 11.2 7.1 6.3 72 2.3 SW 17 22 9 12 1023.6 - 0.0
27/10:00am 11.0 7.3 6.2 72 2.2 WSW 15 19 8 10 1022.9 - 0.0
27/09:30am 10.9 6.4 6.3 73 2.2 SW 19 24 10 13 1022.8 - 0.0
27/09:00am 10.4 6.6 6.0 74 2.0 SW 15 20 8 11 1022.1 1022.3 6.4
27/08:30am 10.2 6.8 5.8 74 2.0 SW 13 17 7 9 1021.5 - 6.4
27/08:00am 9.9 6.4 5.5 74 2.0 SW 13 19 7 10 1020.7 - 6.4
27/07:30am 9.9 5.7 5.5 74 2.0 WSW 17 24 9 13 1020.4 - 6.4
27/07:00am 9.5 5.2 5.3 75 1.9 WSW 17 24 9 13 1019.9 - 6.4
27/06:30am 9.1 4.5 5.7 79 1.6 WSW 19 24 10 13 1019.3 - 6.4
27/06:00am 9.2 4.7 5.9 80 1.5 SW 19 26 10 14 1018.6 1018.8 6.4
27/05:30am 9.5 4.9 6.4 81 1.4 WSW 20 28 11 15 1018.0 - 6.4
27/05:00am 9.7 5.1 6.6 81 1.5 SW 20 30 11 16 1017.4 - 6.4
27/04:30am 10.0 5.9 7.9 87 1.0 WSW 19 28 10 15 1016.7 - 6.4
27/04:00am 9.7 5.7 8.1 90 0.8 W 19 26 10 14 1016.3 - 6.4
27/03:30am 9.9 5.4 8.5 91 0.7 W 22 30 12 16 1016.3 - 6.4
27/03:00am 9.3 5.0 7.9 91 0.7 W 20 26 11 14 1015.9 1016.1 6.4
27/02:30am 9.6 5.0 8.2 91 0.7 W 22 32 12 17 1015.6 - 6.4
27/02:00am 9.0 3.9 7.5 90 0.7 WNW 24 32 13 17 1015.1 - 6.4
27/01:30am 8.9 4.1 7.4 90 0.7 WNW 22 26 12 14 1014.8 - 6.4
27/01:00am 9.6 4.4 7.2 85 1.1 W 24 32 13 17 1014.3 - 6.4
27/12:30am 9.9 4.5 8.0 88 0.9 W 26 35 14 19 1014.2 - 6.4
27/12:00am 9.6 4.1 7.5 87 1.0 WNW 26 33 14 18 1013.7 1013.8 6.4
 
Date/Time
CST
Temp
°C
App
Temp
°C
Dew
Point
°C
Rel
Hum
%
Delta-T
°C
Wind Press
QNH
hPa
Press
MSL
hPa
Rain since
9am
mm
Dir  Spd
km/h
Gust
km/h
Spd
kts
Gust
kts
26/11:30pm 10.5 5.2 8.3 86 1.1 W 26 33 14 18 1013.4 - 6.4
26/11:00pm 10.1 5.9 8.4 89 0.8 WNW 20 28 11 15 1013.1 - 6.4
26/10:30pm 10.0 5.8 8.3 89 0.8 WNW 20 28 11 15 1013.0 - 6.4
26/10:00pm 10.3 5.0 8.4 88 0.9 WNW 26 32 14 17 1012.4 - 6.4
26/09:30pm 10.1 4.0 8.4 89 0.8 W 30 35 16 19 1011.9 - 6.4
26/09:00pm 10.1 4.4 8.5 90 0.8 W 28 39 15 21 1011.7 1011.8 6.4
26/08:30pm 10.3 3.4 8.9 91 0.7 W 35 46 19 25 1011.3 - 6.0
26/08:00pm 10.3 4.7 8.7 90 0.8 W 28 35 15 19 1010.7 - 5.6
26/07:30pm 10.3 3.7 8.7 90 0.8 W 33 52 18 28 1010.2 - 5.2
26/07:08pm 10.3 1.7 8.7 90 0.8 W 44 63 24 34 1010.0 - 4.8
26/07:00pm 10.5 1.4 8.6 88 0.9 W 46 63 25 34 1009.9 - 4.0
26/06:50pm 11.0 1.6 8.9 87 1.0 W 48 59 26 32 1009.7 - 3.2
26/06:31pm 10.9 2.5 9.0 88 0.9 NW 43 63 23 34 1009.0 - 2.8
26/06:30pm 10.9 2.5 9.0 88 0.9 NW 43 59 23 32 1008.9 - 2.6
26/06:13pm 10.7 3.0 8.8 88 0.9 NW 39 57 21 31 1008.6 - 1.6
26/06:00pm 10.8 2.2 8.7 87 1.0 NNW 44 59 24 32 1008.6 1008.7 0.8
26/05:31pm 11.2 2.4 8.2 82 1.5 NNW 44 63 24 34 1008.3 - 0.6
26/05:30pm 11.3 2.1 8.2 81 1.5 NNW 46 63 25 34 1008.4 - 0.6
26/05:15pm 11.0 2.4 8.2 83 1.4 NNW 43 61 23 33 1008.4 - 0.6

Latest Capital City Observations: Canberra | Sydney | Melbourne | Brisbane | Adelaide | Perth | Hobart | Darwin

Other Formats:

Comma delimited format used in spreadsheet applications
http://www.bom.gov.au/fwo/IDS60901/IDS60901.95671.axf

JavaScript Object Notation format (JSON) in row-major order
http://www.bom.gov.au/fwo/IDS60901/IDS60901.95671.json